Ana Sayfa
METAR-TAF:

METAR-TAF

Havaalanları :

Cidde, Suudi Arabistan

Enlem: 21-42N, Boylam: 039-11E, yükseklik: 15 m

Güncel hava durumu gözlemi

Rapor saat 04:00 UTC de 55 dakika önce yapıldı.
Sakin rüzgar
Sıcaklık 29°C
Nem 48%
Basınç 1003 hPa
Görüş mesafesi 10 km veya daha fazla
1500 m altında bulut yok ve kümülonimbus yok

METAR: OEJN 160400Z 00000KT CAVOK 29/17 Q1003 NOSIG

Saat: 07:55 (04:55 UTC)

Tahmin

Rapor saat 23:00 UTC de 5 saat ve 55 dakika önce yapıldı.
Ayın 16'si saat 00 UTC'den ayın 17'si saat 06 UTC'ye kadar geçerli Tahmin
Rüzgar değişken yönden 3 kt
Görüş mesafesi 10 km veya daha fazla
1500 m altında bulut yok ve kümülonimbus yok
Dönüşüyor
ayın 16'si saat 06 UTC'den ayın 16'si saat 08 UTC'ye kadar
Rüzgar kuzeybatıdan 16 kt
Dönüşüyor
ayın 16'si saat 18 UTC'den ayın 16'si saat 20 UTC'ye kadar
Rüzgar kuzeydan 8 kt

TAF: OEJN 152300Z 1600/1706 VRB03KT CAVOK BECMG 1606/1608 32016KT BECMG 1618/1620 36008KT

4.000'den fazla havaalanı için hava durumu gözlemleri ve tahminleri (METAR ve TAF raporları).

Kullanılabilir istasyonlar harita üzerinde sarı ve kırmızı noktalarla gösterilir.

İstasyonun adını görmek için fareyi noktanın üzerinde gezdirin.

Sonrasında hava gözlem ve tahminlerini görmek için tıklayın.

Haritayı değiştirmek için: yaklaştırmak için siyah artı işaretli yeşil düğmeye ve uzaklaştırmak için de eksi işaretli düğmeye hızla tıklayın; bitişik haritalar için yeşil okları kullanın.


METAR-TAF: